createdAt,value
2023-05-01T00:01:27.468Z,4.89
2023-05-01T00:06:52.435Z,4.79
2023-05-01T00:12:16.616Z,4.71
2023-05-01T00:17:41.740Z,4.68
2023-05-01T00:23:07.238Z,4.65
2023-05-01T00:28:32.010Z,4.64
2023-05-01T00:33:56.793Z,4.63
2023-05-01T00:39:21.355Z,4.62
2023-05-01T00:44:45.859Z,4.53
2023-05-01T00:50:11.929Z,4.40
2023-05-01T00:55:37.327Z,4.31
2023-05-01T01:01:02.986Z,4.16
2023-05-01T01:06:49.375Z,4.03
2023-05-01T01:12:25.558Z,3.96
2023-05-01T01:18:25.679Z,3.87
2023-05-01T01:24:21.284Z,3.73
2023-05-01T01:29:48.757Z,3.68
2023-05-01T01:35:21.690Z,3.66
2023-05-01T01:40:57.429Z,3.67
2023-05-01T01:46:23.737Z,3.65
2023-05-01T01:51:50.447Z,3.61
2023-05-01T01:57:18.372Z,3.52
2023-05-01T02:02:47.382Z,3.42
2023-05-01T02:08:13.911Z,3.36
2023-05-01T02:13:41.109Z,3.31
2023-05-01T02:19:05.940Z,3.27
2023-05-01T02:24:32.290Z,3.25
2023-05-01T02:29:58.331Z,3.26
2023-05-01T02:35:23.614Z,3.25
2023-05-01T02:40:52.976Z,3.35
2023-05-01T02:46:19.503Z,3.42
2023-05-01T02:51:44.443Z,3.40
2023-05-01T02:57:10.964Z,3.33
2023-05-01T03:02:36.440Z,3.20
2023-05-01T03:08:00.835Z,3.07
2023-05-01T03:13:25.982Z,2.95
2023-05-01T03:18:51.239Z,2.90
2023-05-01T03:24:15.170Z,2.85
2023-05-01T03:29:39.517Z,2.77
2023-05-01T03:35:05.534Z,2.74
2023-05-01T03:40:29.812Z,2.74
2023-05-01T03:46:20.607Z,2.74
2023-05-01T03:51:44.666Z,2.73
2023-05-01T03:57:09.534Z,2.83
2023-05-01T04:02:34.094Z,2.98
2023-05-01T04:07:59.248Z,3.12
2023-05-01T04:13:23.986Z,3.30
2023-05-01T04:18:48.302Z,3.55
2023-05-01T04:24:12.536Z,3.88
2023-05-01T04:29:37.008Z,4.20
2023-05-01T04:35:01.570Z,4.51
2023-05-01T04:40:27.100Z,4.79
2023-05-01T04:45:51.623Z,5.00
2023-05-01T04:51:15.643Z,5.20
2023-05-01T04:56:39.518Z,5.39
2023-05-01T05:02:03.694Z,5.60
2023-05-01T05:07:28.432Z,5.79
2023-05-01T05:13:16.410Z,6.02
2023-05-01T05:18:41.547Z,6.20
2023-05-01T05:24:06.362Z,6.35
2023-05-01T05:29:30.807Z,6.47
2023-05-01T05:34:55.533Z,6.60
2023-05-01T05:40:20.148Z,6.73
2023-05-01T05:46:02.144Z,6.95
2023-05-01T05:51:28.808Z,7.36
2023-05-01T05:56:53.643Z,7.78
2023-05-01T06:02:18.091Z,8.13
2023-05-01T06:07:42.639Z,8.44
2023-05-01T06:13:13.688Z,8.73
2023-05-01T06:18:45.729Z,8.94
2023-05-01T06:24:13.674Z,9.11
2023-05-01T06:29:44.677Z,9.31
2023-05-01T06:35:09.079Z,9.58
2023-05-01T06:40:35.150Z,9.80
2023-05-01T06:45:59.372Z,9.91
2023-05-01T06:51:23.900Z,9.99
2023-05-01T06:56:49.226Z,10.19
2023-05-01T07:02:14.009Z,10.47
2023-05-01T07:07:42.316Z,10.84
2023-05-01T07:13:12.001Z,11.16
2023-05-01T07:18:40.800Z,11.45
2023-05-01T07:24:06.562Z,11.66
2023-05-01T07:29:31.355Z,11.91
2023-05-01T07:34:56.084Z,12.10
2023-05-01T07:40:20.081Z,12.27
2023-05-01T07:45:57.833Z,12.38
2023-05-01T07:51:22.394Z,12.40
2023-05-01T07:56:48.497Z,12.51
2023-05-01T08:02:18.313Z,12.64
2023-05-01T08:07:43.060Z,12.68
2023-05-01T08:13:07.292Z,12.78
2023-05-01T08:18:31.846Z,12.85
2023-05-01T08:23:59.018Z,12.98
2023-05-01T08:29:23.307Z,13.23
2023-05-01T08:34:47.925Z,13.42
2023-05-01T08:40:13.046Z,13.59
2023-05-01T08:45:38.586Z,13.71
2023-05-01T08:51:04.419Z,13.79
2023-05-01T08:56:31.499Z,14.02
2023-05-01T09:01:56.901Z,14.36
2023-05-01T09:07:22.113Z,14.65
2023-05-01T09:12:57.787Z,14.79
2023-05-01T09:18:22.273Z,14.94
2023-05-01T09:23:46.561Z,15.08
2023-05-01T09:29:10.952Z,15.27
2023-05-01T09:34:35.063Z,15.53
2023-05-01T09:40:16.861Z,15.56
2023-05-01T09:45:43.568Z,15.71
2023-05-01T09:51:37.108Z,15.97
2023-05-01T09:57:01.202Z,15.99
2023-05-01T10:02:32.772Z,16.09
2023-05-01T10:08:00.362Z,16.28
2023-05-01T10:13:24.583Z,16.26
2023-05-01T10:18:49.362Z,16.41
2023-05-01T10:24:15.643Z,16.50
2023-05-01T10:29:42.363Z,16.42
2023-05-01T10:35:12.056Z,16.49
2023-05-01T10:40:46.476Z,16.57
2023-05-01T10:46:11.642Z,16.80
2023-05-01T10:52:04.824Z,16.96
2023-05-01T10:57:42.972Z,17.04
2023-05-01T11:03:33.431Z,17.21
2023-05-01T11:08:57.828Z,17.32
2023-05-01T11:14:22.760Z,17.50
2023-05-01T11:19:48.626Z,17.71
2023-05-01T11:25:28.220Z,17.92
2023-05-01T11:30:52.431Z,18.08
2023-05-01T11:36:17.424Z,18.19
2023-05-01T11:41:41.859Z,18.32
2023-05-01T11:47:07.837Z,18.34
2023-05-01T11:52:55.276Z,18.30
2023-05-01T11:58:32.826Z,18.33
2023-05-01T12:03:57.882Z,18.27
2023-05-01T12:09:30.647Z,18.10
2023-05-01T12:14:55.212Z,18.31
2023-05-01T12:20:44.115Z,18.53
2023-05-01T12:26:28.712Z,18.74
2023-05-01T12:31:53.580Z,18.57
2023-05-01T12:37:18.034Z,18.57
2023-05-01T12:42:43.044Z,18.73
2023-05-01T12:48:16.466Z,18.94
2023-05-01T12:53:44.915Z,18.80
2023-05-01T12:59:24.811Z,18.73
2023-05-01T13:04:50.303Z,19.24
2023-05-01T13:10:15.981Z,19.41
2023-05-01T13:15:39.867Z,19.30
2023-05-01T13:21:11.801Z,19.63
2023-05-01T13:26:36.276Z,19.63
2023-05-01T13:32:01.384Z,19.68
2023-05-01T13:37:26.542Z,19.57
2023-05-01T13:42:53.149Z,19.31
2023-05-01T13:48:19.070Z,19.33
2023-05-01T13:53:43.468Z,19.41
2023-05-01T13:59:09.404Z,19.84
2023-05-01T14:04:36.175Z,19.84
2023-05-01T14:10:00.924Z,19.87
2023-05-01T14:15:25.406Z,19.67
2023-05-01T14:20:49.293Z,19.35
2023-05-01T14:26:19.056Z,19.27
2023-05-01T14:31:43.648Z,19.27
2023-05-01T14:37:15.436Z,19.36
2023-05-01T14:42:44.520Z,19.45
2023-05-01T14:48:08.851Z,19.66
2023-05-01T14:53:33.445Z,19.97
2023-05-01T14:58:57.430Z,19.67
2023-05-01T15:04:21.723Z,19.74
2023-05-01T15:09:47.044Z,19.78
2023-05-01T15:15:12.532Z,19.66
2023-05-01T15:20:38.064Z,19.50
2023-05-01T15:26:02.053Z,19.26
2023-05-01T15:31:26.560Z,19.42
2023-05-01T15:36:51.334Z,19.60
2023-05-01T15:42:16.175Z,19.85
2023-05-01T15:47:40.904Z,19.80
2023-05-01T15:53:04.800Z,19.66
2023-05-01T15:58:29.051Z,19.58
2023-05-01T16:03:53.442Z,19.52
2023-05-01T16:09:17.699Z,19.55
2023-05-01T16:14:42.712Z,19.44
2023-05-01T16:20:11.715Z,19.45
2023-05-01T16:25:35.963Z,19.76
2023-05-01T16:31:00.167Z,19.97
2023-05-01T16:36:24.367Z,20.02
2023-05-01T16:41:54.088Z,20.04
2023-05-01T16:47:19.090Z,19.80
2023-05-01T16:52:44.265Z,19.55
2023-05-01T16:58:08.237Z,19.37
2023-05-01T17:03:32.764Z,19.07
2023-05-01T17:08:56.925Z,18.76
2023-05-01T17:14:22.412Z,18.32
2023-05-01T17:19:46.991Z,18.00
2023-05-01T17:25:12.167Z,17.77
2023-05-01T17:30:36.408Z,17.58
2023-05-01T17:36:00.953Z,17.43
2023-05-01T17:41:25.074Z,17.29
2023-05-01T17:46:49.399Z,17.17
2023-05-01T17:52:14.350Z,17.04
2023-05-01T17:57:40.815Z,16.95
2023-05-01T18:03:05.249Z,16.78
2023-05-01T18:08:29.534Z,16.64
2023-05-01T18:13:53.647Z,16.49
2023-05-01T18:19:18.889Z,16.32
2023-05-01T18:24:44.589Z,16.22
2023-05-01T18:30:10.272Z,16.03
2023-05-01T18:35:34.571Z,15.90
2023-05-01T18:40:59.121Z,15.85
2023-05-01T18:46:23.605Z,15.82
2023-05-01T18:51:49.029Z,15.73
2023-05-01T18:57:14.068Z,15.62
2023-05-01T19:02:39.816Z,15.54
2023-05-01T19:08:05.557Z,15.49
2023-05-01T19:13:29.893Z,15.44
2023-05-01T19:18:54.088Z,15.41
2023-05-01T19:24:18.859Z,15.37
2023-05-01T19:29:43.597Z,15.29
2023-05-01T19:35:10.539Z,15.21
2023-05-01T19:40:34.870Z,15.09
2023-05-01T19:45:58.818Z,15.01
2023-05-01T19:51:23.281Z,14.90
2023-05-01T19:56:52.820Z,14.78
2023-05-01T20:09:37.218Z,14.46
2023-05-01T20:15:06.015Z,14.33
2023-05-01T20:20:37.874Z,14.14
2023-05-01T20:26:02.156Z,13.99
2023-05-01T20:31:27.170Z,13.85
2023-05-01T20:36:51.660Z,13.71
2023-05-01T20:42:16.382Z,13.58
2023-05-01T20:47:40.927Z,13.43
2023-05-01T20:53:05.155Z,13.32
2023-05-01T20:58:29.328Z,13.22
2023-05-01T21:03:54.324Z,13.09
2023-05-01T21:09:20.050Z,12.96
2023-05-01T21:14:45.083Z,12.87
2023-05-01T21:20:16.752Z,12.79
2023-05-01T21:25:41.447Z,12.67
2023-05-01T21:31:05.752Z,12.58
2023-05-01T21:36:30.651Z,12.48
2023-05-01T21:41:54.973Z,12.38
2023-05-01T21:47:20.346Z,12.28
2023-05-01T21:52:46.251Z,12.27
2023-05-01T21:58:11.699Z,12.26
2023-05-01T22:03:41.953Z,12.25
2023-05-01T22:09:06.883Z,12.17
2023-05-01T22:14:46.068Z,12.14
2023-05-01T22:20:11.973Z,12.15
2023-05-01T22:25:36.651Z,12.14
2023-05-01T22:31:00.719Z,12.10
2023-05-01T22:36:26.204Z,12.07
2023-05-01T22:41:51.014Z,12.06
2023-05-01T22:47:16.222Z,12.06
2023-05-01T22:52:41.168Z,12.07
2023-05-01T22:58:05.379Z,12.11
2023-05-01T23:03:31.695Z,12.13
2023-05-01T23:08:56.427Z,12.15
2023-05-01T23:14:20.980Z,12.09
2023-05-01T23:19:46.320Z,12.04
2023-05-01T23:25:14.262Z,12.04
2023-05-01T23:30:40.977Z,12.02
2023-05-01T23:36:06.963Z,11.99
2023-05-01T23:41:31.123Z,11.85
2023-05-01T23:46:55.474Z,11.73
2023-05-01T23:52:20.537Z,11.69
2023-05-01T23:57:45.229Z,11.73
